Historyczne dane pomiarowe

Dodano dane terminowe – wersja testowa.

Dane z okresu 1951-2019

Wersja bazy: 1.34 [2019-03-16, lista zmian], aktualizacja planowana na 2019-04-15

Dane meteo z obszaru Polski uzyskane na podstawie danych udostępnionych przez Instytut Meteorologii i Gospodarki Wodnej – Państwowy Instytut Badawczy.

 

Wybierz Datę:    

       

TemperaturaWilgotnośćWiatrCiśnienieOpadyŚniegCzas trwania zjawisk
 Stacja t tx tn tng RH VA  wxwx mslp ppp RRR   cm mm wxwxwxwxwxwxwx
1999-08-14 13.0 19.5 7.4- 85.5- 3.0 1.3---- 0.0------------
1999-08-13 15.5 19.7 12.3- 88.0- 6.3 2.3---- 0.0------------
1999-08-12 15.9 18.9 14.0- 90.5- 8.0 2.7---- 0.0------------
1999-08-11 18.4 23.4 14.9- 94.8- 6.3 0.0---- 5.1------------
1999-08-10 21.3 29.0 15.9- 90.3- 7.7 2.7---- 6.1------------
1999-08-09 20.4 30.4 13.7- 89.5- 4.7 1.3---- 12.6------------
1999-08-08 20.2 26.1 13.4- 87.8- 5.0 2.3---- 0.0------------
1999-08-07 20.1 27.5 13.3- 85.0- 5.3 1.3---- 0.2------------
1999-08-06 19.4 25.9 14.0- 92.0- 6.7 0.0---- 1.1------------
1999-08-05 17.1 25.9 10.3- 84.8- 5.7 1.3---- 0.0------------
1999-08-04 15.4 23.1 9.4- 85.8- 3.3 2.3---- 0.0------------
1999-08-03 15.7 21.0 11.3- 92.5- 6.7 0.0---- 0.0------------
1999-08-02 14.3 18.9 10.3- 91.3- 8.0 1.3---- 3.8------------
1999-08-01 16.1 22.9 12.5- 91.3- 7.3 2.3---- 2.7------------
1999-07-31 15.4 22.2 9.3- 86.0- 5.7 0.0---- 0.6------------
1999-07-30 14.5 21.3 8.2- 84.0- 4.3 2.3---- 0.8------------
1999-07-29 16.6 21.6 12.1- 84.0- 4.7 1.3---- 0.0------------
1999-07-28 18.5 22.8 15.5- 86.8- 5.3 2.3---- 0.0------------
1999-07-27 19.4 23.3 17.1- 92.0- 8.0 3.7---- 3.6------------
1999-07-26 19.5 26.5 12.9- 88.8- 6.0 1.3---- 0.0------------
1999-07-25 17.0 24.1 10.2- 86.0- 7.0 0.0---- 0.0------------
1999-07-24 15.5 20.0 11.3- 87.5- 7.7 2.3---- 0.0------------
1999-07-23 14.9 18.9 12.5- 96.5- 8.0 1.3---- 20.9------------
1999-07-22 19.3 26.0 14.3- 87.5- 6.0 0.0---- 20.8------------
1999-07-21 21.3 29.7 13.2- 81.0- 4.0 1.3---- 0.0------------
1999-07-20 19.1 28.5 10.7- 84.3- 3.3 1.3---- 0.0------------
1999-07-19 17.6 26.8 9.9- 82.3- 2.3 1.3---- 0.0------------
1999-07-18 16.0 24.8 9.2- 80.3- 3.3 2.7---- 0.0------------
1999-07-17 15.2 22.5 8.9- 84.5- 4.7 1.3---- 0.0------------
1999-07-16 15.1 20.9 9.0- 83.8- 5.0 0.0---- 1.1------------
1999-07-15 17.3 21.1 14.5- 79.5- 6.7 3.3---- 0.0------------
1999-07-14 19.2 22.9 16.0- 91.0- 7.7 2.3---- 5.6------------
1999-07-13 20.0 23.8 16.3- 86.0- 7.0 3.7---- 3.5------------
1999-07-12 19.5 25.0 15.1- 93.0- 7.0 1.3---- 1.2------------
1999-07-11 19.1 21.6 16.5- 97.0- 7.7 0.0---- 15.9------------
1999-07-10 19.6 21.8 18.1- 92.5- 8.0 1.3---- 0.0------------
1999-07-09 19.8 23.4 16.2- 90.8- 8.0 2.7---- 0.0------------
1999-07-08 20.6 24.0 17.9- 92.8- 7.7 0.0---- 7.7------------
1999-07-07 22.0 29.5 16.9- 92.0- 6.7 0.0---- 39.1------------
1999-07-06 24.1 30.9 15.3- 73.5- 0.3 3.0---- 0.0------------
1999-07-05 22.3 30.8 13.8- 75.5- 0.3 2.3---- 0.0------------
1999-07-04 21.5 30.4 11.9- 78.5- 0.3 1.3---- 0.0------------
1999-07-03 18.6 25.5 12.9- 86.8- 4.0 1.3---- 0.0------------
1999-07-02 19.0 23.5 15.0- 91.5- 6.0 0.0---- 1.7------------
1999-07-01 18.0 25.4 12.0- 79.0- 6.7 1.3---- 1.4------------
1999-06-30 20.3 25.7 13.9- 85.0- 4.0 1.3---- 0.0------------
1999-06-29 19.1 25.0 12.5- 83.3- 5.3 2.7---- 0.0------------
1999-06-28 17.8 27.5 10.1- 85.8- 3.7 1.3---- 0.7------------
1999-06-27 17.7 26.4 6.0- 71.3- 0.0 5.0---- 0.0------------
1999-06-26 15.3 24.0 5.4- 76.8- 0.7 2.3---- 0.0------------
1999-06-25 12.1 19.2 6.0- 83.3- 1.0 1.3---- 0.0------------
1999-06-24 10.6 12.5 8.4- 93.0- 8.0 1.3---- 0.4------------
1999-06-23 9.5 10.9 8.0- 93.5- 8.0 4.7---- 10.4------------
1999-06-22 12.0 16.5 8.9- 95.0- 8.0 0.7---- 16.8------------
1999-06-21 18.1 24.0 15.1- 90.3- 7.7 3.0---- 70.6------------
1999-06-20 18.6 23.7 15.0- 88.3- 6.7 1.3---- 13.1------------
1999-06-19 17.7 21.9 14.8- 90.8- 7.0 4.0---- 0.0------------
1999-06-18 18.0 21.7 15.3- 93.8- 7.3 1.3---- 9.4------------
1999-06-17 18.9 23.8 15.2- 90.0- 7.7 1.3---- 7.2------------
1999-06-16 18.3 21.6 15.8- 94.3- 7.3 1.3---- 0.8------------
401.6 ms

 

Źródłem pochodzenia danych jest Instytut Meteorologii i Gospodarki Wodnej – Państwowy Instytut Badawczy. Dane Instytutu Meteorologii i Gospodarki Wodnej – Państwowego Instytutu Badawczego zostały przetworzone.

Dane źródłowe można odnaleźć na stronie https://dane.imgw.pl